Time;durP1;ratioP1;P1;durP2;ratioP2;P2;SDS_P1;SDS_P2;PMS_P1;PMS_P2;Temp;Humidity;BMP_temperature;BMP_pressure;BME280_temperature;BME280_humidity;BME280_pressure;Samples;Min_cycle;Max_cycle;Signal;HPM_P1;HPM_P2
2021/04/19 00:00:10;;;;;;;10.45;7.05;;;10.70;94.10;;;;;;1824875;79;21552;-73
2021/04/19 00:02:42;;;;;;;13.43;7.40;;;10.60;95.90;;;;;;1824893;78;21118;-73
2021/04/19 00:05:15;;;;;;;11.63;7.53;;;10.50;97.00;;;;;;1825025;79;21128;-73
2021/04/19 00:07:44;;;;;;;11.20;7.37;;;10.40;98.10;;;;;;1824838;79;21122;-73
2021/04/19 00:10:16;;;;;;;12.18;8.18;;;10.30;98.90;;;;;;1825018;79;21168;-73
2021/04/19 00:12:45;;;;;;;10.80;7.90;;;10.10;99.90;;;;;;1824804;79;21173;-73
2021/04/19 00:15:18;;;;;;;11.83;8.38;;;10.00;99.90;;;;;;1824868;79;21156;-73
2021/04/19 00:17:46;;;;;;;11.10;7.72;;;9.80;99.90;;;;;;1824820;79;21090;-74
2021/04/19 00:20:15;;;;;;;13.05;8.08;;;9.80;99.90;;;;;;1824805;79;21128;-73
2021/04/19 00:22:43;;;;;;;11.97;6.83;;;9.80;99.90;;;;;;1825077;79;21157;-73
2021/04/19 00:25:12;;;;;;;13.25;7.80;;;9.70;99.90;;;;;;1824811;79;21125;-73
2021/04/19 00:27:40;;;;;;;10.80;7.22;;;9.70;99.90;;;;;;1824810;79;21165;-73
2021/04/19 00:30:09;;;;;;;10.72;7.20;;;9.60;99.90;;;;;;1824811;79;21102;-73
2021/04/19 00:32:37;;;;;;;11.18;7.37;;;9.70;99.90;;;;;;1824788;79;21118;-73
2021/04/19 00:35:08;;;;;;;11.65;7.65;;;9.70;99.90;;;;;;1824987;79;21169;-73
2021/04/19 00:37:36;;;;;;;12.07;7.37;;;9.70;99.90;;;;;;1824926;79;21121;-73
2021/04/19 00:40:12;;;;;;;10.58;7.03;;;9.80;99.90;;;;;;1824765;79;21149;-73
2021/04/19 00:42:42;;;;;;;11.05;6.60;;;9.80;99.90;;;;;;1824958;79;21094;-73
2021/04/19 00:45:13;;;;;;;11.50;7.60;;;9.80;99.90;;;;;;1824918;79;21125;-74
2021/04/19 00:47:45;;;;;;;12.58;7.72;;;9.90;99.90;;;;;;1824992;79;21109;-73
2021/04/19 00:50:18;;;;;;;11.10;7.90;;;9.90;99.90;;;;;;1824880;79;21575;-73
2021/04/19 00:52:48;;;;;;;14.33;8.00;;;9.90;99.90;;;;;;1824782;79;21153;-73
2021/04/19 00:55:17;;;;;;;12.20;8.08;;;9.90;99.90;;;;;;1824980;79;21159;-73
2021/04/19 00:57:45;;;;;;;12.82;7.97;;;9.80;99.90;;;;;;1824987;79;21124;-73
2021/04/19 01:00:24;;;;;;;14.38;8.25;;;9.80;99.90;;;;;;1824783;79;21133;-73
2021/04/19 01:02:53;;;;;;;13.20;8.58;;;9.80;99.90;;;;;;1824908;79;21133;-73
2021/04/19 01:05:31;;;;;;;14.38;8.63;;;9.90;99.90;;;;;;1824899;79;21141;-73
2021/04/19 01:07:59;;;;;;;13.28;8.80;;;10.00;99.90;;;;;;1824820;79;21089;-73
2021/04/19 01:10:28;;;;;;;13.28;8.90;;;9.90;99.90;;;;;;1824858;79;21583;-72
2021/04/19 01:12:56;;;;;;;12.30;8.85;;;9.80;99.90;;;;;;1824806;79;21600;-73
2021/04/19 01:15:24;;;;;;;13.55;9.05;;;9.70;99.90;;;;;;1824965;79;21166;-73
2021/04/19 01:17:52;;;;;;;13.18;8.80;;;9.70;99.90;;;;;;1825155;79;21152;-73
2021/04/19 01:20:26;;;;;;;15.00;8.78;;;9.60;99.90;;;;;;1825124;79;21153;-73
2021/04/19 01:22:55;;;;;;;12.78;8.95;;;9.60;99.90;;;;;;1825125;79;21127;-73
2021/04/19 01:25:28;;;;;;;13.03;8.65;;;9.50;99.90;;;;;;1825133;79;21148;-73
2021/04/19 01:27:58;;;;;;;13.30;8.08;;;9.50;99.90;;;;;;1825201;79;21094;-73
2021/04/19 01:30:34;;;;;;;14.47;9.00;;;9.50;99.90;;;;;;1825566;79;21651;-73
2021/04/19 01:33:04;;;;;;;12.28;8.55;;;9.50;99.90;;;;;;1824922;79;21145;-73
2021/04/19 01:35:34;;;;;;;11.90;7.47;;;9.50;99.90;;;;;;1824864;79;21619;-73
2021/04/19 01:38:06;;;;;;;12.13;7.95;;;9.50;99.90;;;;;;1824923;79;21180;-73
2021/04/19 01:40:34;;;;;;;11.75;7.35;;;9.50;99.90;;;;;;1825024;79;21563;-73
2021/04/19 01:43:04;;;;;;;13.68;7.70;;;9.50;99.90;;;;;;1824943;79;21128;-73
2021/04/19 01:45:33;;;;;;;12.28;7.58;;;9.50;99.90;;;;;;1823510;79;21114;-72
2021/04/19 01:48:03;;;;;;;13.25;8.23;;;9.50;99.90;;;;;;1824940;79;21149;-73
2021/04/19 01:50:31;;;;;;;13.75;8.28;;;9.60;99.90;;;;;;1825233;79;21140;-73
2021/04/19 01:53:00;;;;;;;11.20;7.87;;;9.60;99.90;;;;;;1825184;79;21144;-73
2021/04/19 01:55:32;;;;;;;12.75;8.23;;;9.70;99.90;;;;;;1825305;79;21287;-72
2021/04/19 01:58:11;;;;;;;11.73;8.18;;;9.70;99.90;;;;;;1824969;79;21555;-73
2021/04/19 02:00:42;;;;;;;11.93;8.10;;;9.70;99.90;;;;;;1824922;79;21117;-72
2021/04/19 02:03:51;;;;;;;12.35;8.43;;;9.70;99.90;;;;;;1824950;79;21148;-74
2021/04/19 02:07:04;;;;;;;11.78;8.00;;;9.70;99.90;;;;;;1824771;79;21149;-73
2021/04/19 02:09:49;;;;;;;12.43;7.87;;;9.80;99.90;;;;;;1824915;79;21125;-72
2021/04/19 02:12:35;;;;;;;12.10;8.28;;;9.80;99.90;;;;;;1820016;79;21177;-73
2021/04/19 02:15:17;;;;;;;11.33;8.28;;;9.70;99.90;;;;;;1824293;79;21141;-73
2021/04/19 02:18:12;;;;;;;30.23;19.23;;;9.60;99.90;;;;;;1824525;79;21120;-73
2021/04/19 02:20:52;;;;;;;12.13;8.35;;;9.60;99.90;;;;;;1824918;79;21121;-73
2021/04/19 02:23:28;;;;;;;12.68;8.50;;;9.70;99.90;;;;;;1825201;79;21133;-73
2021/04/19 02:26:19;;;;;;;14.15;8.80;;;9.70;99.90;;;;;;1825017;79;21089;-72
2021/04/19 02:29:04;;;;;;;11.97;8.43;;;9.60;99.90;;;;;;1824961;79;21606;-72
2021/04/19 02:31:38;;;;;;;12.82;8.98;;;9.50;99.90;;;;;;1825077;79;21564;-72
2021/04/19 02:34:12;;;;;;;14.78;8.48;;;9.60;99.90;;;;;;1795398;79;21567;-71
2021/04/19 02:36:48;;;;;;;15.95;8.55;;;9.60;99.90;;;;;;1821098;79;21180;-71
2021/04/19 02:39:18;;;;;;;12.70;8.20;;;9.70;99.90;;;;;;1819341;79;21126;-73
2021/04/19 02:41:51;;;;;;;12.20;7.70;;;9.70;99.90;;;;;;1819213;78;21556;-73
2021/04/19 02:44:21;;;;;;;11.57;7.40;;;9.80;99.90;;;;;;1819309;79;21543;-72
2021/04/19 02:47:01;;;;;;;13.28;8.48;;;9.90;99.90;;;;;;1818389;79;21166;-72
2021/04/19 02:49:34;;;;;;;13.78;8.03;;;9.90;99.90;;;;;;1787569;79;21619;-72
2021/04/19 02:52:06;;;;;;;11.97;8.30;;;10.00;99.90;;;;;;1819124;79;21169;-72
2021/04/19 02:54:40;;;;;;;12.35;8.10;;;10.00;99.90;;;;;;1819204;79;21560;-73
2021/04/19 02:57:22;;;;;;;12.07;7.65;;;10.10;99.70;;;;;;1819232;79;21125;-73
2021/04/19 02:59:53;;;;;;;12.35;7.92;;;10.20;99.00;;;;;;1818956;79;21138;-73
2021/04/19 03:02:26;;;;;;;12.07;7.45;;;10.20;99.60;;;;;;1819321;79;21101;-73
2021/04/19 03:04:58;;;;;;;14.70;8.53;;;10.30;96.90;;;;;;1819326;78;21113;-73
2021/04/19 03:07:37;;;;;;;11.28;7.92;;;10.40;96.60;;;;;;1819551;78;21287;-73
2021/04/19 03:10:13;;;;;;;12.47;8.10;;;10.50;95.90;;;;;;1819219;79;21191;-73
2021/04/19 03:12:46;;;;;;;11.87;7.57;;;10.50;96.10;;;;;;1819626;79;21544;-73
2021/04/19 03:15:25;;;;;;;11.80;7.70;;;10.50;95.80;;;;;;1819120;79;21147;-73
2021/04/19 03:17:59;;;;;;;12.20;7.67;;;10.40;96.20;;;;;;1818803;79;21599;-73
2021/04/19 03:21:04;;;;;;;13.62;7.45;;;10.30;95.80;;;;;;1817158;79;21133;-73
2021/04/19 03:23:47;;;;;;;10.58;7.62;;;10.30;95.80;;;;;;1819256;79;21130;-75
2021/04/19 03:26:22;;;;;;;10.78;7.08;;;10.30;95.30;;;;;;1818582;79;21133;-74
2021/04/19 03:28:54;;;;;;;11.35;7.78;;;10.20;95.90;;;;;;1819105;79;21560;-74
2021/04/19 03:31:38;;;;;;;14.25;8.53;;;10.20;96.30;;;;;;1818109;79;21169;-74
2021/04/19 03:34:16;;;;;;;13.38;9.33;;;10.00;98.70;;;;;;1819282;79;21086;-74
2021/04/19 03:36:47;;;;;;;13.68;9.60;;;9.80;99.90;;;;;;1819297;79;21165;-75
2021/04/19 03:39:18;;;;;;;14.13;9.78;;;9.60;99.90;;;;;;1819292;79;21125;-74
2021/04/19 03:41:50;;;;;;;18.77;10.10;;;9.50;99.90;;;;;;1819171;78;21125;-74
2021/04/19 03:44:22;;;;;;;14.47;10.18;;;9.50;99.90;;;;;;1819184;79;21528;-74
2021/04/19 03:46:55;;;;;;;15.75;9.75;;;9.50;99.90;;;;;;1787275;79;21153;-74
2021/04/19 03:49:30;;;;;;;14.68;9.58;;;9.40;99.90;;;;;;1817913;79;21126;-73
2021/04/19 03:52:09;;;;;;;13.48;9.28;;;9.50;99.90;;;;;;1818749;79;21168;-74
2021/04/19 03:54:43;;;;;;;12.55;8.80;;;9.50;99.90;;;;;;1787399;79;21559;-73
2021/04/19 03:57:17;;;;;;;11.80;8.70;;;9.50;99.90;;;;;;1819093;78;21423;-73
2021/04/19 03:59:53;;;;;;;12.70;8.68;;;9.40;99.90;;;;;;1819039;79;21145;-73
2021/04/19 04:02:25;;;;;;;11.68;8.18;;;9.50;99.90;;;;;;1819089;79;21140;-71
2021/04/19 04:05:05;;;;;;;14.13;9.13;;;9.50;99.90;;;;;;1818898;79;21156;-71
2021/04/19 04:07:42;;;;;;;16.32;9.63;;;9.60;99.90;;;;;;1816801;79;21118;-74
2021/04/19 04:10:13;;;;;;;13.22;9.25;;;9.60;99.90;;;;;;1819200;79;21118;-74
2021/04/19 04:12:41;;;;;;;13.18;8.78;;;9.60;99.90;;;;;;1819048;78;21876;-73
2021/04/19 04:15:11;;;;;;;12.93;9.95;;;9.50;99.90;;;;;;1819268;79;21559;-74
2021/04/19 04:17:41;;;;;;;14.10;9.80;;;9.60;99.90;;;;;;1818882;79;21141;-73
2021/04/19 04:20:12;;;;;;;14.90;9.90;;;9.50;99.90;;;;;;1818232;79;21138;-74
2021/04/19 04:22:46;;;;;;;15.48;9.73;;;9.50;99.90;;;;;;1818116;79;21149;-73
2021/04/19 04:25:16;;;;;;;14.43;9.40;;;9.50;99.90;;;;;;1819333;79;21571;-73
2021/04/19 04:27:46;;;;;;;14.45;9.93;;;9.50;99.90;;;;;;1819462;79;21121;-73
2021/04/19 04:30:15;;;;;;;15.13;9.68;;;9.60;99.90;;;;;;1819046;78;21105;-73
2021/04/19 04:32:46;;;;;;;15.10;10.40;;;9.50;99.90;;;;;;1817174;79;21169;-73
2021/04/19 04:35:22;;;;;;;14.68;10.10;;;9.50;99.90;;;;;;1818738;79;21150;-73
2021/04/19 04:37:51;;;;;;;14.87;9.90;;;9.50;99.90;;;;;;1816383;79;21121;-73
2021/04/19 04:40:21;;;;;;;15.05;9.65;;;9.40;99.90;;;;;;1818182;79;21161;-73
2021/04/19 04:42:55;;;;;;;16.00;10.63;;;9.40;99.90;;;;;;1819541;79;21153;-73
2021/04/19 04:45:24;;;;;;;17.70;11.57;;;9.30;99.90;;;;;;1819238;79;21133;-73
2021/04/19 04:48:01;;;;;;;16.50;11.12;;;9.30;99.90;;;;;;1819098;79;21158;-73
2021/04/19 04:50:43;;;;;;;17.60;11.40;;;9.30;99.90;;;;;;1819384;79;21141;-73
2021/04/19 04:53:25;;;;;;;16.48;11.00;;;9.30;99.90;;;;;;1802941;79;21958;-73
2021/04/19 04:55:55;;;;;;;18.80;11.73;;;9.30;99.90;;;;;;1819419;79;21126;-73
2021/04/19 04:58:24;;;;;;;19.12;11.70;;;9.30;99.90;;;;;;1819224;79;21152;-73
2021/04/19 05:00:53;;;;;;;18.00;11.73;;;9.30;99.90;;;;;;1819193;79;21169;-73
2021/04/19 05:03:25;;;;;;;18.42;10.85;;;9.30;99.90;;;;;;1819291;79;21572;-73
2021/04/19 05:05:57;;;;;;;16.52;11.38;;;9.40;99.90;;;;;;1819396;79;21125;-73
2021/04/19 05:08:27;;;;;;;16.50;10.78;;;9.60;99.90;;;;;;1819322;79;21153;-73
2021/04/19 05:10:56;;;;;;;15.75;10.35;;;9.60;99.90;;;;;;1819275;79;21595;-73
2021/04/19 05:13:25;;;;;;;19.05;11.00;;;9.70;99.90;;;;;;1819153;79;21153;-73
2021/04/19 05:15:53;;;;;;;19.37;12.50;;;9.80;99.90;;;;;;1819183;79;21145;-72
2021/04/19 05:18:22;;;;;;;20.05;12.60;;;10.10;99.90;;;;;;1819202;79;21129;-73
2021/04/19 05:20:50;;;;;;;18.20;11.97;;;10.10;99.90;;;;;;1819358;79;21136;-73
2021/04/19 05:23:18;;;;;;;17.25;12.05;;;10.20;99.90;;;;;;1819361;79;21156;-72
2021/04/19 05:25:47;;;;;;;19.57;12.65;;;10.30;98.30;;;;;;1819493;79;21279;-73
2021/04/19 05:28:18;;;;;;;21.40;13.43;;;10.40;97.60;;;;;;1819269;79;21582;-72
2021/04/19 05:30:49;;;;;;;18.82;12.68;;;10.50;97.70;;;;;;1819265;79;21571;-72
2021/04/19 05:33:17;;;;;;;19.30;11.65;;;10.50;97.10;;;;;;1819327;79;21149;-72
2021/04/19 05:35:45;;;;;;;20.00;13.13;;;10.50;96.70;;;;;;1819376;79;21157;-72
2021/04/19 05:38:15;;;;;;;19.98;12.58;;;10.50;96.80;;;;;;1822419;79;21315;-72
2021/04/19 05:40:45;;;;;;;18.60;12.10;;;10.50;96.90;;;;;;1822606;79;21287;-72
2021/04/19 05:43:14;;;;;;;20.35;11.90;;;10.40;97.00;;;;;;1822638;78;21117;-72
2021/04/19 05:45:44;;;;;;;20.50;11.50;;;10.30;96.80;;;;;;1822816;79;21622;-72
2021/04/19 05:48:13;;;;;;;17.48;11.55;;;10.20;97.70;;;;;;1823245;78;21643;-73
2021/04/19 05:50:44;;;;;;;17.75;11.63;;;10.10;97.80;;;;;;1822604;79;21424;-72
2021/04/19 05:53:12;;;;;;;19.40;11.95;;;10.00;98.80;;;;;;1822681;79;21787;-73
2021/04/19 05:55:42;;;;;;;18.32;12.15;;;9.90;99.90;;;;;;1822782;79;21137;-73
2021/04/19 05:58:30;;;;;;;18.65;12.47;;;9.80;99.90;;;;;;1823219;79;21137;-72
2021/04/19 06:01:09;;;;;;;22.62;12.75;;;9.70;99.90;;;;;;1822591;79;21275;-72
2021/04/19 06:03:57;;;;;;;19.85;12.53;;;9.60;99.90;;;;;;1822800;79;21117;-71
2021/04/19 06:06:48;;;;;;;16.70;10.53;;;9.60;99.90;;;;;;1822749;79;21125;-72
2021/04/19 06:09:29;;;;;;;16.80;10.93;;;9.60;99.90;;;;;;1821279;79;21110;-71
2021/04/19 06:12:06;;;;;;;18.70;10.98;;;9.60;99.90;;;;;;1822491;79;21165;-71
2021/04/19 06:14:40;;;;;;;21.57;11.68;;;9.60;99.90;;;;;;1822286;79;21741;-72
2021/04/19 06:17:10;;;;;;;18.60;11.03;;;9.60;99.90;;;;;;1823027;79;21521;-71
2021/04/19 06:19:44;;;;;;;17.57;11.45;;;9.70;99.90;;;;;;1822883;79;21287;-71
2021/04/19 06:22:18;;;;;;;16.85;11.05;;;9.80;99.90;;;;;;1822983;79;21145;-71
2021/04/19 06:24:50;;;;;;;18.00;11.28;;;10.00;99.90;;;;;;1822881;79;21525;-72
2021/04/19 06:27:26;;;;;;;16.32;11.03;;;10.10;99.90;;;;;;1822778;79;21113;-73
2021/04/19 06:29:55;;;;;;;18.17;11.65;;;10.10;99.70;;;;;;1822894;79;21275;-72
2021/04/19 06:32:24;;;;;;;21.02;11.73;;;10.10;99.90;;;;;;1822649;79;21134;-72
2021/04/19 06:34:52;;;;;;;23.02;11.60;;;10.20;98.20;;;;;;1822696;79;21157;-72
2021/04/19 06:37:21;;;;;;;19.67;11.48;;;10.30;99.30;;;;;;1822709;79;21290;-72
2021/04/19 06:39:49;;;;;;;18.95;12.40;;;10.40;98.20;;;;;;1822581;79;21278;-72
2021/04/19 06:42:17;;;;;;;19.42;12.50;;;10.50;97.60;;;;;;1822750;79;21157;-72
2021/04/19 06:44:45;;;;;;;17.40;11.50;;;10.50;96.80;;;;;;1822744;79;21279;-72
2021/04/19 06:47:13;;;;;;;17.55;11.05;;;10.60;97.60;;;;;;1822629;79;21575;-72
2021/04/19 06:49:44;;;;;;;16.23;10.70;;;10.60;95.00;;;;;;1822662;79;21561;-72
2021/04/19 06:52:11;;;;;;;15.65;10.88;;;10.70;93.50;;;;;;1822575;79;21310;-73
2021/04/19 06:54:39;;;;;;;16.02;10.80;;;10.80;93.20;;;;;;1822538;79;21619;-74
2021/04/19 06:57:09;;;;;;;14.98;10.25;;;10.80;93.30;;;;;;1822821;79;21133;-74
2021/04/19 06:59:41;;;;;;;15.63;10.05;;;10.80;92.30;;;;;;1822540;78;21279;-74
2021/04/19 07:02:21;;;;;;;15.80;10.38;;;10.90;92.60;;;;;;1822658;79;21318;-72
2021/04/19 07:04:54;;;;;;;15.38;10.50;;;10.90;92.10;;;;;;1822561;79;21093;-72
2021/04/19 07:07:30;;;;;;;17.67;10.90;;;10.90;92.70;;;;;;1822663;79;21253;-72
2021/04/19 07:10:03;;;;;;;16.32;10.20;;;10.90;92.80;;;;;;1822724;79;21138;-72
2021/04/19 07:12:35;;;;;;;17.02;10.98;;;10.90;92.90;;;;;;1822478;79;21294;-71
2021/04/19 07:15:06;;;;;;;18.50;11.40;;;10.80;94.30;;;;;;1822524;79;21133;-71
2021/04/19 07:17:34;;;;;;;16.30;11.28;;;10.70;94.70;;;;;;1822581;79;21271;-71
2021/04/19 07:20:04;;;;;;;19.80;11.63;;;10.80;94.70;;;;;;1822842;78;21293;-71
2021/04/19 07:22:33;;;;;;;17.52;10.68;;;10.80;93.10;;;;;;1822672;79;21292;-71
2021/04/19 07:25:01;;;;;;;16.80;10.75;;;10.90;92.60;;;;;;1822552;79;21280;-71
2021/04/19 07:27:29;;;;;;;18.40;11.50;;;10.80;93.50;;;;;;1822533;79;21259;-71
2021/04/19 07:29:57;;;;;;;15.65;10.48;;;10.90;93.00;;;;;;1822509;79;21120;-71
2021/04/19 07:32:37;;;;;;;16.12;10.90;;;10.90;92.70;;;;;;1822969;78;21547;-71
2021/04/19 07:35:09;;;;;;;15.98;10.18;;;10.90;91.40;;;;;;1822733;79;21564;-72
2021/04/19 07:37:37;;;;;;;16.10;10.72;;;11.00;91.80;;;;;;1822470;79;21275;-72
2021/04/19 07:40:07;;;;;;;17.20;10.75;;;11.10;91.50;;;;;;1822528;78;21286;-72
2021/04/19 07:42:37;;;;;;;15.32;11.10;;;11.10;91.80;;;;;;1822608;78;21280;-71
2021/04/19 07:45:06;;;;;;;18.50;11.83;;;11.20;92.00;;;;;;1822663;79;21694;-73
2021/04/19 07:47:41;;;;;;;16.75;11.03;;;11.20;91.20;;;;;;1822741;79;21169;-72
2021/04/19 07:50:20;;;;;;;18.27;11.47;;;11.30;91.30;;;;;;1823074;79;21275;-73
2021/04/19 07:53:04;;;;;;;17.10;11.57;;;11.30;91.70;;;;;;1822645;79;21966;-72
2021/04/19 07:55:36;;;;;;;15.70;10.20;;;11.40;91.10;;;;;;1822660;79;21314;-73
2021/04/19 07:58:10;;;;;;;16.62;9.53;;;11.40;88.70;;;;;;1822599;79;21353;-72
2021/04/19 08:00:40;;;;;;;14.00;9.93;;;11.50;86.50;;;;;;1822462;79;21117;-73
2021/04/19 08:03:13;;;;;;;15.13;9.78;;;11.50;85.80;;;;;;1822555;79;21587;-73
2021/04/19 08:05:52;;;;;;;13.58;9.20;;;11.60;86.90;;;;;;1822801;79;21110;-73
2021/04/19 08:08:35;;;;;;;11.90;8.63;;;11.60;84.70;;;;;;1822496;78;21279;-72
2021/04/19 08:11:16;;;;;;;15.28;9.95;;;11.70;85.10;;;;;;1822805;79;21496;-73
2021/04/19 08:13:46;;;;;;;14.75;8.88;;;11.70;81.50;;;;;;1822712;79;21157;-73
2021/04/19 08:16:20;;;;;;;12.07;8.50;;;11.80;84.60;;;;;;1822504;78;21295;-72
2021/04/19 08:18:50;;;;;;;12.97;8.43;;;11.90;83.70;;;;;;1822633;79;21723;-72
2021/04/19 08:21:33;;;;;;;11.55;8.38;;;12.00;80.60;;;;;;1822551;79;21725;-71
2021/04/19 08:24:17;;;;;;;12.15;8.88;;;12.00;83.10;;;;;;1822766;78;21271;-72
2021/04/19 08:26:58;;;;;;;11.57;8.45;;;12.00;80.40;;;;;;1822483;78;21126;-71
2021/04/19 08:29:42;;;;;;;9.58;7.12;;;12.10;82.30;;;;;;1822467;79;21125;-71
2021/04/19 08:32:14;;;;;;;11.38;7.67;;;12.10;79.50;;;;;;1822362;78;21140;-72
2021/04/19 08:35:02;;;;;;;11.93;8.10;;;12.10;78.10;;;;;;1822377;79;21058;-72
2021/04/19 08:37:33;;;;;;;12.47;8.15;;;12.00;78.80;;;;;;1821998;79;21260;-73
2021/04/19 08:40:05;;;;;;;11.30;8.08;;;12.10;80.40;;;;;;1822668;79;21680;-72
2021/04/19 08:42:36;;;;;;;13.22;8.30;;;12.10;80.40;;;;;;1822505;78;21303;-72
2021/04/19 08:45:06;;;;;;;10.68;8.00;;;12.00;79.20;;;;;;1822647;79;21267;-72
2021/04/19 08:47:34;;;;;;;12.47;7.97;;;12.10;79.20;;;;;;1822541;79;21595;-72
2021/04/19 08:50:07;;;;;;;13.00;8.55;;;12.10;79.00;;;;;;1822412;78;21283;-72
2021/04/19 08:52:36;;;;;;;12.30;8.80;;;12.00;80.40;;;;;;1822445;79;21291;-73
2021/04/19 08:55:07;;;;;;;12.65;8.58;;;12.00;79.90;;;;;;1822536;79;21714;-73
2021/04/19 08:57:35;;;;;;;13.15;9.20;;;12.00;81.20;;;;;;1822583;78;21247;-72
2021/04/19 09:00:05;;;;;;;15.95;9.25;;;11.90;79.50;;;;;;1822712;79;21580;-73
2021/04/19 09:02:33;;;;;;;12.80;8.43;;;12.00;80.90;;;;;;1822971;78;21157;-73
2021/04/19 09:05:05;;;;;;;12.30;8.73;;;12.00;82.00;;;;;;1822687;79;21144;-72
2021/04/19 09:07:37;;;;;;;11.57;8.55;;;12.00;82.30;;;;;;1821127;79;21157;-72
2021/04/19 09:10:10;;;;;;;16.42;8.88;;;12.00;80.70;;;;;;1822774;78;21125;-73
2021/04/19 09:12:44;;;;;;;13.20;8.60;;;12.10;81.60;;;;;;1822557;78;21545;-73
2021/04/19 09:15:29;;;;;;;12.80;8.95;;;12.10;80.10;;;;;;1822586;79;21298;-73
2021/04/19 09:18:08;;;;;;;14.80;9.83;;;12.20;81.10;;;;;;1822493;79;21679;-73
2021/04/19 09:20:47;;;;;;;16.97;11.25;;;12.10;78.30;;;;;;1822604;79;21279;-73
2021/04/19 09:23:35;;;;;;;13.30;9.98;;;11.90;79.50;;;;;;1819317;79;21121;-72
2021/04/19 09:26:01;;;;;;;15.10;10.50;;;11.90;80.40;;;;;;1822258;78;21620;-73
2021/04/19 09:28:47;;;;;;;12.40;8.95;;;11.90;80.60;;;;;;1822623;79;21725;-73
2021/04/19 09:31:14;;;;;;;13.03;8.93;;;11.90;81.40;;;;;;1822444;79;21298;-71
2021/04/19 09:33:42;;;;;;;14.98;9.80;;;11.90;81.50;;;;;;1822521;79;21279;-72
2021/04/19 09:36:11;;;;;;;14.58;9.35;;;11.90;82.30;;;;;;1822885;79;21109;-72
2021/04/19 09:38:52;;;;;;;22.37;11.57;;;11.80;81.00;;;;;;1822545;78;21718;-72
2021/04/19 09:41:13;;;;;;;16.42;9.85;;;11.90;81.50;;;;;;1821426;79;21147;-72
2021/04/19 09:43:54;;;;;;;13.35;8.73;;;11.90;80.90;;;;;;1822795;78;21271;-72
2021/04/19 09:46:29;;;;;;;11.50;7.60;;;11.90;81.40;;;;;;1822600;79;21291;-73
2021/04/19 09:49:04;;;;;;;13.85;8.78;;;12.00;79.60;;;;;;1822964;78;21267;-72
2021/04/19 09:51:43;;;;;;;14.38;9.15;;;12.00;79.60;;;;;;1822833;79;21690;-72
2021/04/19 09:54:22;;;;;;;13.08;8.70;;;12.00;78.80;;;;;;1822606;78;21082;-73
2021/04/19 09:56:57;;;;;;;15.32;9.08;;;12.00;79.90;;;;;;1822811;79;21267;-73
2021/04/19 09:59:27;;;;;;;13.60;8.45;;;12.10;78.60;;;;;;1822812;79;21556;-72
2021/04/19 10:02:00;;;;;;;12.90;8.45;;;12.10;78.60;;;;;;1822575;78;21725;-73
2021/04/19 10:04:32;;;;;;;13.13;8.38;;;12.20;79.50;;;;;;1822630;78;21126;-72
2021/04/19 10:07:01;;;;;;;13.03;8.63;;;12.20;79.00;;;;;;1822652;79;21737;-72
2021/04/19 10:09:30;;;;;;;12.45;8.45;;;12.20;77.20;;;;;;1822577;78;21144;-72
2021/04/19 10:12:02;;;;;;;12.40;8.38;;;12.20;78.40;;;;;;1822543;78;21275;-72
2021/04/19 10:14:40;;;;;;;12.75;8.45;;;12.30;77.40;;;;;;1822618;79;21291;-72
2021/04/19 10:17:26;;;;;;;11.83;7.92;;;12.40;76.00;;;;;;1822778;79;21291;-72
2021/04/19 10:19:53;;;;;;;11.93;8.05;;;12.40;77.20;;;;;;1822790;79;21157;-72
2021/04/19 10:22:21;;;;;;;14.55;8.30;;;12.40;76.90;;;;;;1822666;78;21130;-72
2021/04/19 10:24:58;;;;;;;11.65;8.63;;;12.40;77.10;;;;;;1822622;78;21721;-72
2021/04/19 10:27:29;;;;;;;14.40;7.62;;;12.30;77.40;;;;;;1822747;79;21129;-72
2021/04/19 10:30:17;;;;;;;12.03;8.03;;;12.40;77.30;;;;;;1822586;78;21307;-72
2021/04/19 10:32:46;;;;;;;14.47;7.58;;;12.40;77.20;;;;;;1822701;79;21571;-72
2021/04/19 10:35:42;;;;;;;11.55;6.95;;;12.40;77.20;;;;;;1822565;78;21291;-72
2021/04/19 10:38:11;;;;;;;13.45;6.87;;;12.50;77.50;;;;;;1820559;79;21275;-71
2021/04/19 10:40:39;;;;;;;12.45;7.08;;;12.70;76.20;;;;;;1819067;79;22273;-71
2021/04/19 10:43:11;;;;;;;10.53;6.95;;;12.80;73.70;;;;;;1819669;79;21279;-73
2021/04/19 10:45:42;;;;;;;11.80;8.25;;;12.90;72.70;;;;;;1819060;79;21120;-74
2021/04/19 10:48:23;;;;;;;10.32;7.40;;;12.90;74.10;;;;;;1818762;78;21548;-73
2021/04/19 10:50:55;;;;;;;10.58;7.35;;;12.70;71.70;;;;;;1817755;79;21189;-73
2021/04/19 10:53:38;;;;;;;13.50;7.58;;;12.60;71.90;;;;;;1818467;79;21636;-71
2021/04/19 10:56:10;;;;;;;13.50;7.05;;;12.40;72.30;;;;;;1819026;79;21130;-71
2021/04/19 10:58:41;;;;;;;11.95;7.33;;;12.30;72.30;;;;;;1819194;79;21129;-70
2021/04/19 11:01:10;;;;;;;10.32;7.08;;;12.30;75.10;;;;;;1819193;79;21122;-70
2021/04/19 11:03:39;;;;;;;10.00;7.10;;;12.20;75.20;;;;;;1819226;78;21117;-70
2021/04/19 11:06:10;;;;;;;11.28;6.78;;;12.20;75.50;;;;;;1818943;79;21173;-73
2021/04/19 12:56:25;;;;;;;15.63;8.78;;;12.00;78.60;;;;;;1818745;79;21130;-71
2021/04/19 12:58:53;;;;;;;17.02;10.18;;;12.00;79.20;;;;;;1818900;79;21552;-69
2021/04/19 13:01:21;;;;;;;15.40;9.98;;;12.10;78.70;;;;;;1819007;79;21145;-70
2021/04/19 13:03:49;;;;;;;14.05;9.08;;;11.90;78.60;;;;;;1819387;79;21138;-69
2021/04/19 13:06:17;;;;;;;15.00;10.70;;;11.90;78.50;;;;;;1818850;78;21113;-69
2021/04/19 13:08:44;;;;;;;16.42;9.68;;;11.90;78.90;;;;;;1818918;79;21145;-70
2021/04/19 13:11:14;;;;;;;16.25;10.03;;;11.80;79.70;;;;;;1819367;79;21161;-69
2021/04/19 13:13:41;;;;;;;16.50;9.85;;;11.90;81.00;;;;;;1819332;79;21161;-68
2021/04/19 13:16:09;;;;;;;14.18;9.65;;;11.90;80.70;;;;;;1819131;78;21161;-74
2021/04/19 13:18:37;;;;;;;16.17;10.30;;;11.80;81.30;;;;;;1819076;78;21145;-74
2021/04/19 13:21:06;;;;;;;16.35;10.55;;;11.80;82.50;;;;;;1802747;79;21587;-73
2021/04/19 13:23:34;;;;;;;17.87;10.45;;;11.80;81.60;;;;;;1797973;79;21129;-72
2021/04/19 13:26:01;;;;;;;17.85;10.82;;;11.80;81.70;;;;;;1804637;79;21161;-71
2021/04/19 13:28:29;;;;;;;17.20;10.45;;;11.90;81.70;;;;;;1791858;79;21137;-72
2021/04/19 13:30:57;;;;;;;17.65;10.35;;;12.00;81.60;;;;;;1799089;79;21124;-71
2021/04/19 13:33:25;;;;;;;18.52;11.53;;;12.00;81.40;;;;;;1804106;79;21551;-72
2021/04/19 13:35:53;;;;;;;15.75;9.85;;;11.90;81.40;;;;;;1797558;79;21532;-72
2021/04/19 13:38:20;;;;;;;14.18;9.50;;;11.90;82.10;;;;;;1795373;79;21130;-71
2021/04/19 13:40:48;;;;;;;14.47;9.45;;;12.00;82.80;;;;;;1799864;79;21105;-71
2021/04/19 13:43:16;;;;;;;12.07;8.23;;;11.90;82.60;;;;;;1797523;79;21118;-70
2021/04/19 13:45:45;;;;;;;15.18;8.55;;;12.00;82.60;;;;;;1808197;79;21133;-71
2021/04/19 13:48:13;;;;;;;13.80;7.92;;;12.00;81.90;;;;;;1814339;79;21142;-74
2021/04/19 13:50:41;;;;;;;12.95;7.87;;;12.10;82.10;;;;;;1814282;79;21144;-75
2021/04/19 13:53:08;;;;;;;11.00;7.83;;;12.10;82.00;;;;;;1805249;79;21125;-80
2021/04/19 13:55:36;;;;;;;12.80;8.58;;;12.10;82.20;;;;;;1797935;79;21137;-75
2021/04/19 13:58:06;;;;;;;11.20;7.83;;;12.00;82.40;;;;;;1802475;79;21138;-75
2021/04/19 14:00:34;;;;;;;13.03;7.80;;;12.00;82.60;;;;;;1798506;79;21140;-74
2021/04/19 14:03:02;;;;;;;13.65;7.92;;;12.10;84.00;;;;;;1796066;79;21128;-77
2021/04/19 14:05:30;;;;;;;13.55;7.37;;;12.20;81.50;;;;;;1796824;79;21131;-75
2021/04/19 14:07:58;;;;;;;11.33;7.92;;;12.20;82.70;;;;;;1798551;79;21233;-75
2021/04/19 14:10:27;;;;;;;13.38;7.75;;;12.20;81.40;;;;;;1796060;79;21583;-74
2021/04/19 14:12:55;;;;;;;12.35;7.87;;;12.30;81.30;;;;;;1793965;79;21090;-74
2021/04/19 14:15:27;;;;;;;12.15;8.10;;;12.30;80.20;;;;;;1792865;79;21152;-74
2021/04/19 14:17:52;;;;;;;12.82;8.35;;;12.30;82.50;;;;;;1798375;79;21088;-76
2021/04/19 14:20:20;;;;;;;12.68;8.35;;;12.20;80.40;;;;;;1801496;79;21552;-76
2021/04/19 14:22:47;;;;;;;12.68;7.67;;;12.20;81.30;;;;;;1799798;79;21518;-73
2021/04/19 14:25:15;;;;;;;13.32;8.38;;;12.20;81.70;;;;;;1795347;79;21141;-74
2021/04/19 14:27:43;;;;;;;13.20;8.68;;;12.20;80.90;;;;;;1797605;79;21117;-74
2021/04/19 14:30:12;;;;;;;13.80;9.03;;;12.10;80.70;;;;;;1791680;79;21153;-76
2021/04/19 14:32:40;;;;;;;14.05;9.63;;;12.00;79.90;;;;;;1794924;79;21098;-77
2021/04/19 14:35:09;;;;;;;13.48;8.53;;;12.10;81.30;;;;;;1788892;79;21091;-76
2021/04/19 14:37:37;;;;;;;13.60;8.85;;;12.10;81.00;;;;;;1799603;79;21128;-75
2021/04/19 14:40:08;;;;;;;15.18;9.05;;;12.10;81.60;;;;;;1786983;80;21578;-77
2021/04/19 14:42:36;;;;;;;14.68;9.38;;;12.20;80.80;;;;;;1791356;79;21164;-75
2021/04/19 14:45:07;;;;;;;11.48;8.35;;;12.20;79.80;;;;;;1800640;79;21105;-79
2021/04/19 14:47:36;;;;;;;13.60;9.13;;;12.10;79.90;;;;;;1802868;79;21114;-76
2021/04/19 14:50:07;;;;;;;14.75;9.05;;;12.20;80.20;;;;;;1798471;79;21149;-78
2021/04/19 14:52:36;;;;;;;12.23;8.13;;;12.20;79.60;;;;;;1725460;82;21597;-79